createdAt,value
2019-05-18T00:01:54.649Z,32.13
2019-05-18T00:04:27.418Z,30.47
2019-05-18T00:06:59.982Z,33.47
2019-05-18T00:09:31.886Z,32.57
2019-05-18T00:12:04.205Z,31.97
2019-05-18T00:14:43.944Z,32.67
2019-05-18T00:17:24.890Z,31.47
2019-05-18T00:19:50.168Z,30.57
2019-05-18T00:22:22.246Z,27.07
2019-05-18T00:24:54.596Z,23.70
2019-05-18T00:27:26.615Z,23.70
2019-05-18T00:29:58.695Z,25.00
2019-05-18T00:32:31.640Z,28.43
2019-05-18T00:35:04.403Z,27.20
2019-05-18T00:37:37.701Z,28.53
2019-05-18T00:40:11.627Z,30.87
2019-05-18T00:42:43.911Z,31.07
2019-05-18T00:45:16.396Z,33.50
2019-05-18T00:47:48.558Z,35.20
2019-05-18T00:50:23.151Z,35.03
2019-05-18T00:52:54.851Z,35.70
2019-05-18T00:55:27.731Z,38.97
2019-05-18T00:57:59.772Z,35.40
2019-05-18T01:00:31.827Z,35.27
2019-05-18T01:03:03.681Z,37.07
2019-05-18T01:05:38.028Z,35.70
2019-05-18T01:08:08.905Z,35.07
2019-05-18T01:10:40.580Z,34.60
2019-05-18T01:13:12.359Z,36.07
2019-05-18T01:15:45.634Z,34.83
2019-05-18T01:18:17.106Z,34.93
2019-05-18T01:20:51.255Z,35.30
2019-05-18T01:23:24.132Z,35.03
2019-05-18T01:25:56.195Z,34.87
2019-05-18T01:28:31.194Z,35.23
2019-05-18T01:31:03.755Z,33.53
2019-05-18T01:33:36.176Z,33.90
2019-05-18T01:36:08.955Z,34.27
2019-05-18T01:38:41.150Z,32.73
2019-05-18T01:41:13.295Z,33.57
2019-05-18T01:43:44.998Z,31.83
2019-05-18T01:46:18.772Z,32.43
2019-05-18T01:48:52.326Z,33.27
2019-05-18T01:51:25.258Z,33.60
2019-05-18T01:53:58.858Z,32.37
2019-05-18T01:56:32.268Z,33.87
2019-05-18T01:59:05.045Z,33.77
2019-05-18T02:01:37.400Z,33.83
2019-05-18T02:04:09.812Z,34.10
2019-05-18T02:06:41.909Z,34.23
2019-05-18T02:09:14.318Z,32.50
2019-05-18T02:11:46.471Z,33.57
2019-05-18T02:14:20.026Z,34.50
2019-05-18T02:16:52.471Z,33.87
2019-05-18T02:19:25.691Z,32.53
2019-05-18T02:21:57.361Z,32.33
2019-05-18T02:24:29.464Z,34.33
2019-05-18T02:27:00.757Z,31.70
2019-05-18T02:29:34.463Z,33.33
2019-05-18T02:32:07.780Z,33.77
2019-05-18T02:34:40.160Z,33.67
2019-05-18T02:37:13.405Z,35.13
2019-05-18T02:39:45.267Z,32.93
2019-05-18T02:42:17.523Z,33.47
2019-05-18T02:44:49.993Z,33.40
2019-05-18T02:47:22.071Z,33.43
2019-05-18T02:49:54.080Z,34.03
2019-05-18T02:52:26.442Z,33.57
2019-05-18T02:55:00.006Z,33.77
2019-05-18T02:57:32.145Z,33.43
2019-05-18T03:00:04.437Z,32.20
2019-05-18T03:02:36.292Z,32.20
2019-05-18T03:05:10.392Z,32.87
2019-05-18T03:07:44.022Z,32.43
2019-05-18T03:10:16.689Z,32.83
2019-05-18T03:12:49.095Z,31.40
2019-05-18T03:15:21.611Z,30.83
2019-05-18T03:17:53.808Z,31.70
2019-05-18T03:20:26.046Z,33.37
2019-05-18T03:22:58.467Z,33.40
2019-05-18T03:25:31.394Z,35.37
2019-05-18T03:28:04.030Z,34.20
2019-05-18T03:30:36.125Z,34.27
2019-05-18T03:33:08.313Z,34.30
2019-05-18T03:35:40.455Z,34.50
2019-05-18T03:38:15.363Z,31.30
2019-05-18T03:40:47.780Z,32.13
2019-05-18T03:43:20.502Z,31.20
2019-05-18T03:45:52.851Z,30.97
2019-05-18T03:48:25.222Z,31.67
2019-05-18T03:50:57.537Z,30.07
2019-05-18T03:53:29.640Z,31.97
2019-05-18T03:56:04.593Z,32.63
2019-05-18T03:58:36.554Z,31.73
2019-05-18T04:01:08.801Z,31.80
2019-05-18T04:03:40.829Z,32.60
2019-05-18T04:06:12.818Z,31.37
2019-05-18T04:08:45.737Z,30.83
2019-05-18T04:11:17.605Z,31.83
2019-05-18T04:13:49.379Z,31.00
2019-05-18T04:16:23.701Z,31.23
2019-05-18T04:18:55.801Z,31.63
2019-05-18T04:21:27.698Z,30.53
2019-05-18T04:23:59.983Z,30.43
2019-05-18T04:26:32.579Z,29.70
2019-05-18T04:29:05.063Z,30.53
2019-05-18T04:31:36.958Z,30.97
2019-05-18T04:34:09.258Z,30.57
2019-05-18T04:36:42.245Z,30.40
2019-05-18T04:39:14.275Z,30.77
2019-05-18T04:41:46.912Z,31.20
2019-05-18T04:44:18.717Z,30.23
2019-05-18T04:46:50.676Z,30.33
2019-05-18T04:49:25.676Z,31.00
2019-05-18T04:51:57.714Z,30.67
2019-05-18T04:54:31.577Z,29.83
2019-05-18T04:57:04.165Z,29.77
2019-05-18T04:59:37.205Z,29.40
2019-05-18T05:02:11.067Z,31.37
2019-05-18T05:04:44.357Z,30.17
2019-05-18T05:07:18.012Z,32.40
2019-05-18T05:09:50.235Z,30.37
2019-05-18T05:12:27.479Z,30.70
2019-05-18T05:15:00.700Z,31.27
2019-05-18T05:17:33.735Z,30.87
2019-05-18T05:20:18.599Z,31.33
2019-05-18T05:22:41.707Z,30.80
2019-05-18T05:28:25.916Z,29.40
2019-05-18T05:30:57.690Z,29.83
2019-05-18T05:33:29.744Z,30.03
2019-05-18T05:36:01.571Z,28.83
2019-05-18T05:38:34.892Z,29.43
2019-05-18T05:41:07.205Z,31.20
2019-05-18T05:43:40.064Z,30.03
2019-05-18T05:46:12.457Z,29.67
2019-05-18T05:48:45.839Z,30.90
2019-05-18T05:51:18.887Z,29.93
2019-05-18T05:53:50.560Z,30.03
2019-05-18T05:56:22.300Z,29.07
2019-05-18T05:58:55.096Z,29.97
2019-05-18T06:01:27.290Z,29.83
2019-05-18T06:04:00.314Z,29.10
2019-05-18T06:06:32.963Z,29.37
2019-05-18T06:09:06.743Z,29.23
2019-05-18T06:11:38.890Z,28.53
2019-05-18T06:14:10.878Z,30.47
2019-05-18T06:16:44.056Z,30.20
2019-05-18T06:19:16.516Z,30.63
2019-05-18T06:21:48.682Z,30.37
2019-05-18T06:24:20.878Z,30.63
2019-05-18T06:26:52.778Z,30.13
2019-05-18T06:29:25.292Z,31.20
2019-05-18T06:31:57.260Z,30.17
2019-05-18T06:34:28.878Z,30.23
2019-05-18T06:37:01.470Z,31.87
2019-05-18T06:39:34.505Z,31.63
2019-05-18T06:42:07.314Z,32.47
2019-05-18T06:44:39.302Z,35.03
2019-05-18T06:47:11.699Z,34.00
2019-05-18T06:49:43.835Z,33.27
2019-05-18T06:52:16.921Z,32.63
2019-05-18T06:54:49.130Z,34.07
2019-05-18T06:57:23.481Z,35.00
2019-05-18T06:59:55.879Z,35.13
2019-05-18T07:02:27.924Z,35.10
2019-05-18T07:05:02.440Z,33.93
2019-05-18T07:07:35.607Z,33.73
2019-05-18T07:10:08.276Z,35.00
2019-05-18T07:12:40.475Z,34.63
2019-05-18T07:15:13.571Z,34.20
2019-05-18T07:17:46.157Z,34.03
2019-05-18T07:20:19.367Z,34.43
2019-05-18T07:22:52.219Z,33.80
2019-05-18T07:25:24.855Z,36.10
2019-05-18T07:27:57.003Z,35.97
2019-05-18T07:30:29.743Z,35.20
2019-05-18T07:33:01.350Z,35.03
2019-05-18T07:35:36.416Z,33.00
2019-05-18T07:38:08.445Z,34.33
2019-05-18T07:40:41.369Z,34.37
2019-05-18T07:43:13.497Z,35.17
2019-05-18T07:45:45.358Z,33.37
2019-05-18T07:48:17.810Z,34.20
2019-05-18T07:50:49.693Z,33.73
2019-05-18T07:53:22.594Z,38.40
2019-05-18T07:55:55.332Z,38.43
2019-05-18T07:58:29.112Z,38.07
2019-05-18T08:01:01.213Z,36.80
2019-05-18T08:03:33.720Z,37.30
2019-05-18T08:06:06.091Z,37.00
2019-05-18T08:08:38.649Z,36.70
2019-05-18T08:11:10.462Z,38.27
2019-05-18T08:13:45.755Z,36.97
2019-05-18T08:16:19.457Z,38.93
2019-05-18T08:18:52.116Z,41.57
2019-05-18T08:21:24.496Z,38.00
2019-05-18T08:23:56.989Z,41.07
2019-05-18T08:26:29.033Z,42.23
2019-05-18T08:29:01.300Z,40.43
2019-05-18T08:31:33.065Z,42.63
2019-05-18T08:34:06.505Z,41.40
2019-05-18T08:36:39.315Z,40.93
2019-05-18T08:39:11.986Z,41.37
2019-05-18T08:41:44.527Z,42.20
2019-05-18T08:44:17.102Z,40.97
2019-05-18T08:46:49.140Z,41.73
2019-05-18T08:49:21.378Z,42.27
2019-05-18T08:52:06.191Z,41.03
2019-05-18T08:54:28.019Z,40.03
2019-05-18T08:57:00.679Z,39.53
2019-05-18T08:59:33.210Z,41.27
2019-05-18T09:02:06.012Z,40.97
2019-05-18T09:04:37.921Z,42.27
2019-05-18T09:07:09.872Z,41.40
2019-05-18T09:09:42.283Z,39.23
2019-05-18T09:12:14.208Z,39.00
2019-05-18T09:14:46.445Z,39.23
2019-05-18T09:17:18.770Z,39.93
2019-05-18T09:19:51.081Z,40.83
2019-05-18T09:22:23.552Z,40.47
2019-05-18T09:28:06.745Z,40.50
2019-05-18T09:30:41.176Z,38.87
2019-05-18T09:33:12.217Z,40.80
2019-05-18T09:35:44.398Z,40.53
2019-05-18T09:38:16.572Z,39.50
2019-05-18T09:40:50.334Z,40.00
2019-05-18T09:43:22.225Z,38.67
2019-05-18T09:45:54.799Z,39.97
2019-05-18T09:48:26.686Z,38.87
2019-05-18T09:50:58.545Z,39.23
2019-05-18T09:53:30.644Z,39.00
2019-05-18T09:56:03.300Z,37.20
2019-05-18T09:58:35.537Z,37.27
2019-05-18T10:01:07.230Z,37.57
2019-05-18T10:03:38.973Z,37.23
2019-05-18T10:06:10.976Z,38.13
2019-05-18T10:08:43.179Z,38.93
2019-05-18T10:14:26.176Z,39.60
2019-05-18T10:16:58.268Z,37.30
2019-05-18T10:19:30.280Z,37.87
2019-05-18T10:22:03.036Z,38.13
2019-05-18T10:24:35.187Z,37.83
2019-05-18T10:27:07.235Z,38.77
2019-05-18T10:29:39.035Z,36.13
2019-05-18T10:32:10.983Z,37.23
2019-05-18T10:34:42.831Z,36.27
2019-05-18T10:37:14.650Z,35.80
2019-05-18T10:39:46.571Z,36.33
2019-05-18T10:42:18.762Z,37.60
2019-05-18T10:44:51.075Z,36.80
2019-05-18T10:47:22.803Z,36.47
2019-05-18T10:49:54.592Z,36.13
2019-05-18T10:52:26.321Z,36.70
2019-05-18T10:54:58.261Z,34.10
2019-05-18T10:57:30.181Z,33.87
2019-05-18T11:00:02.137Z,32.80
2019-05-18T11:02:35.467Z,33.17
2019-05-18T11:05:08.325Z,32.73
2019-05-18T11:07:40.255Z,33.00
2019-05-18T11:10:12.951Z,34.53
2019-05-18T11:15:56.035Z,33.23
2019-05-18T11:18:30.344Z,31.43
2019-05-18T11:21:01.320Z,33.50
2019-05-18T11:23:43.415Z,33.77
2019-05-18T11:26:07.456Z,32.87
2019-05-18T11:28:39.572Z,32.20
2019-05-18T11:31:11.096Z,33.37
2019-05-18T11:33:43.262Z,31.57
2019-05-18T11:36:15.470Z,29.90
2019-05-18T11:38:47.100Z,31.33
2019-05-18T11:41:19.027Z,28.97
2019-05-18T11:43:50.854Z,29.97
2019-05-18T11:46:22.860Z,31.93
2019-05-18T11:48:54.851Z,32.87
2019-05-18T11:51:29.149Z,33.17
2019-05-18T11:54:01.068Z,34.67
2019-05-18T11:56:35.542Z,32.33
2019-05-18T11:59:08.200Z,31.97
2019-05-18T12:01:39.660Z,32.50
2019-05-18T12:04:11.450Z,32.87
2019-05-18T12:06:43.461Z,31.97
2019-05-18T12:09:15.539Z,31.87
2019-05-18T12:11:48.126Z,35.37
2019-05-18T12:14:20.325Z,34.27
2019-05-18T12:16:52.792Z,39.87
2019-05-18T12:19:24.744Z,40.23
2019-05-18T12:21:57.029Z,40.80
2019-05-18T12:24:30.406Z,40.13
2019-05-18T12:27:03.218Z,38.93
2019-05-18T12:29:35.531Z,39.90
2019-05-18T12:32:07.935Z,40.90
2019-05-18T12:34:39.781Z,40.13
2019-05-18T12:37:13.396Z,41.30
2019-05-18T12:39:45.966Z,38.63
2019-05-18T12:42:19.676Z,39.93
2019-05-18T12:44:54.129Z,39.90
2019-05-18T12:47:26.343Z,39.53
2019-05-18T12:49:59.469Z,38.70
2019-05-18T12:52:31.672Z,38.10
2019-05-18T12:55:04.493Z,37.87
2019-05-18T12:57:38.546Z,35.83
2019-05-18T13:00:13.678Z,36.10
2019-05-18T13:02:46.011Z,36.10
2019-05-18T13:05:18.601Z,36.30
2019-05-18T13:07:51.417Z,35.77
2019-05-18T13:10:24.810Z,36.03
2019-05-18T13:12:57.835Z,35.37
2019-05-18T13:15:29.787Z,35.23
2019-05-18T13:18:02.071Z,34.13
2019-05-18T13:20:34.207Z,34.47
2019-05-18T13:23:06.638Z,34.33
2019-05-18T13:25:38.962Z,34.23
2019-05-18T13:28:11.225Z,35.93
2019-05-18T13:30:43.502Z,38.97
2019-05-18T13:33:16.255Z,39.37
2019-05-18T13:35:48.166Z,38.40
2019-05-18T13:38:21.686Z,36.43
2019-05-18T13:40:55.062Z,36.27
2019-05-18T13:43:27.086Z,37.57
2019-05-18T13:45:59.116Z,37.43
2019-05-18T13:48:31.597Z,38.27
2019-05-18T13:51:03.982Z,38.30
2019-05-18T13:53:36.228Z,38.13
2019-05-18T13:56:08.325Z,37.97
2019-05-18T13:58:40.793Z,36.87
2019-05-18T14:01:14.226Z,37.40
2019-05-18T14:03:50.517Z,39.87
2019-05-18T14:06:22.852Z,37.83
2019-05-18T14:08:54.821Z,36.27
2019-05-18T14:14:38.805Z,37.87
2019-05-18T14:17:10.695Z,37.90
2019-05-18T14:19:43.158Z,38.87
2019-05-18T14:22:15.136Z,38.37
2019-05-18T14:24:47.423Z,38.40
2019-05-18T14:27:19.187Z,38.00
2019-05-18T14:29:52.171Z,38.77
2019-05-18T14:35:36.199Z,37.70
2019-05-18T14:41:19.714Z,39.60
2019-05-18T14:43:51.973Z,41.40
2019-05-18T14:46:24.257Z,41.13
2019-05-18T14:48:56.445Z,41.27
2019-05-18T14:51:29.517Z,41.90
2019-05-18T14:54:01.933Z,39.30
2019-05-18T14:56:34.562Z,40.50
2019-05-18T14:59:06.887Z,40.87
2019-05-18T15:01:39.277Z,39.30
2019-05-18T15:04:11.451Z,41.47
2019-05-18T15:06:43.204Z,40.67
2019-05-18T15:09:15.918Z,39.97
2019-05-18T15:11:49.259Z,41.90
2019-05-18T15:14:23.506Z,42.23
2019-05-18T15:16:57.484Z,42.87
2019-05-18T15:19:30.413Z,42.73
2019-05-18T15:22:03.072Z,40.47
2019-05-18T15:24:34.972Z,39.63
2019-05-18T15:27:08.147Z,39.90
2019-05-18T15:29:40.621Z,40.80
2019-05-18T15:32:13.645Z,40.33
2019-05-18T15:34:46.795Z,39.87
2019-05-18T15:37:21.090Z,39.93
2019-05-18T15:39:55.782Z,37.83
2019-05-18T15:42:27.985Z,41.27
2019-05-18T15:45:07.659Z,39.67
2019-05-18T15:47:43.715Z,39.57
2019-05-18T15:50:16.818Z,38.60
2019-05-18T15:53:08.682Z,38.23
2019-05-18T15:55:40.550Z,39.97
2019-05-18T15:58:15.404Z,42.63
2019-05-18T16:00:47.924Z,42.13
2019-05-18T16:03:23.004Z,41.77
2019-05-18T16:05:54.926Z,41.60
2019-05-18T16:08:30.067Z,39.90
2019-05-18T16:11:02.576Z,41.90
2019-05-18T16:13:34.357Z,42.67
2019-05-18T16:16:11.400Z,40.97
2019-05-18T16:18:58.262Z,40.63
2019-05-18T16:21:34.718Z,39.40
2019-05-18T16:24:10.760Z,39.10
2019-05-18T16:26:44.203Z,42.50
2019-05-18T16:29:17.780Z,43.00
2019-05-18T16:31:50.638Z,43.60
2019-05-18T16:34:22.585Z,42.57
2019-05-18T16:36:56.236Z,42.63
2019-05-18T16:39:29.160Z,42.00
2019-05-18T16:42:01.362Z,42.50
2019-05-18T16:44:33.345Z,42.50
2019-05-18T16:47:09.168Z,42.47
2019-05-18T16:49:42.872Z,43.27
2019-05-18T16:52:17.158Z,41.40
2019-05-18T16:54:48.949Z,42.37
2019-05-18T16:57:20.870Z,40.60
2019-05-18T16:59:52.531Z,41.53
2019-05-18T17:02:31.587Z,39.50
2019-05-18T17:04:58.777Z,40.33
2019-05-18T17:07:30.543Z,40.53
2019-05-18T17:10:02.270Z,40.83
2019-05-18T17:12:33.937Z,40.93
2019-05-18T17:15:06.938Z,38.13
2019-05-18T17:17:38.635Z,40.17
2019-05-18T17:20:10.911Z,38.77
2019-05-18T17:22:42.811Z,38.67
2019-05-18T17:25:15.631Z,39.40
2019-05-18T17:27:50.570Z,38.27
2019-05-18T17:30:22.670Z,35.90
2019-05-18T17:32:54.181Z,36.53
2019-05-18T17:35:25.888Z,37.73
2019-05-18T17:37:58.558Z,37.30
2019-05-18T17:40:30.271Z,39.17
2019-05-18T17:43:02.152Z,37.17
2019-05-18T17:45:34.229Z,37.67
2019-05-18T17:48:06.356Z,37.47
2019-05-18T17:50:38.249Z,36.73
2019-05-18T17:53:09.994Z,37.40
2019-05-18T17:55:41.714Z,38.63
2019-05-18T17:58:13.412Z,38.43
2019-05-18T18:00:45.480Z,37.93
2019-05-18T18:03:17.156Z,36.97
2019-05-18T18:05:49.084Z,35.67
2019-05-18T18:08:21.745Z,37.70
2019-05-18T18:14:05.286Z,36.53
2019-05-18T18:16:38.392Z,36.97
2019-05-18T18:19:10.168Z,36.37
2019-05-18T18:21:41.705Z,35.60
2019-05-18T18:24:15.422Z,36.53
2019-05-18T18:26:48.783Z,35.97
2019-05-18T18:29:21.296Z,36.10
2019-05-18T18:31:53.850Z,37.27
2019-05-18T18:34:26.866Z,36.03
2019-05-18T18:36:59.082Z,37.60
2019-05-18T18:39:34.471Z,38.20
2019-05-18T18:42:07.406Z,38.47
2019-05-18T18:44:40.557Z,39.07
2019-05-18T18:47:13.782Z,40.40
2019-05-18T18:49:46.658Z,39.73
2019-05-18T18:52:19.270Z,41.10
2019-05-18T18:54:54.863Z,42.53
2019-05-18T18:57:40.081Z,42.57
2019-05-18T19:00:00.525Z,41.93
2019-05-18T19:02:33.217Z,41.63
2019-05-18T19:05:09.446Z,40.53
2019-05-18T19:07:42.713Z,39.57
2019-05-18T19:10:14.876Z,39.70
2019-05-18T19:12:48.384Z,40.07
2019-05-18T19:15:21.096Z,39.47
2019-05-18T19:17:54.207Z,38.30
2019-05-18T19:20:28.124Z,36.87
2019-05-18T19:23:00.314Z,38.87
2019-05-18T19:25:32.594Z,37.10
2019-05-18T19:28:04.714Z,36.47
2019-05-18T19:30:36.588Z,36.73
2019-05-18T19:33:09.782Z,34.67
2019-05-18T19:35:43.828Z,35.63
2019-05-18T19:38:15.808Z,34.80
2019-05-18T19:40:48.537Z,34.13
2019-05-18T19:43:21.298Z,33.57
2019-05-18T19:45:53.742Z,34.37
2019-05-18T19:48:27.205Z,33.37
2019-05-18T19:51:02.087Z,33.20
2019-05-18T19:53:34.008Z,34.43
2019-05-18T19:59:17.791Z,36.00
2019-05-18T20:01:52.458Z,36.90
2019-05-18T20:04:25.262Z,37.90
2019-05-18T20:07:01.845Z,37.60
2019-05-18T20:09:37.378Z,37.67
2019-05-18T20:12:09.811Z,36.43
2019-05-18T20:14:41.939Z,38.17
2019-05-18T20:17:14.750Z,38.10
2019-05-18T20:19:48.911Z,37.77
2019-05-18T20:22:20.686Z,38.27
2019-05-18T20:24:54.593Z,38.10
2019-05-18T20:27:26.760Z,39.17
2019-05-18T20:29:59.121Z,37.93
2019-05-18T20:32:31.490Z,39.03
2019-05-18T20:35:03.454Z,37.93
2019-05-18T20:37:36.380Z,38.23
2019-05-18T20:40:10.049Z,39.70
2019-05-18T20:43:20.572Z,40.40
2019-05-18T20:45:58.603Z,38.97
2019-05-18T20:48:31.424Z,40.53
2019-05-18T20:51:07.098Z,39.50
2019-05-18T20:53:41.119Z,39.87
2019-05-18T20:56:14.321Z,39.80
2019-05-18T20:58:46.488Z,40.30
2019-05-18T21:01:18.219Z,40.63
2019-05-18T21:03:53.641Z,41.90
2019-05-18T21:06:26.437Z,40.43
2019-05-18T21:08:59.372Z,43.10
2019-05-18T21:11:33.659Z,40.30
2019-05-18T21:14:08.265Z,40.77
2019-05-18T21:16:40.602Z,42.53
2019-05-18T21:19:13.485Z,43.63
2019-05-18T21:21:46.269Z,44.27
2019-05-18T21:24:22.062Z,43.17
2019-05-18T21:26:54.014Z,41.87
2019-05-18T21:29:26.260Z,42.97
2019-05-18T21:31:58.743Z,42.43
2019-05-18T21:34:31.082Z,44.33
2019-05-18T21:37:02.739Z,42.77
2019-05-18T21:39:37.640Z,44.13
2019-05-18T21:42:13.808Z,44.83
2019-05-18T21:44:46.886Z,43.07
2019-05-18T21:47:19.849Z,46.00
2019-05-18T21:49:51.867Z,44.33
2019-05-18T21:52:24.828Z,45.90
2019-05-18T21:54:56.845Z,45.27
2019-05-18T21:57:29.950Z,45.50
2019-05-18T22:00:03.793Z,43.87
2019-05-18T22:02:38.234Z,44.33
2019-05-18T22:05:12.211Z,46.97
2019-05-18T22:07:44.417Z,45.23
2019-05-18T22:10:25.519Z,46.87
2019-05-18T22:12:50.610Z,43.87
2019-05-18T22:15:23.672Z,44.53
2019-05-18T22:18:05.537Z,46.60
2019-05-18T22:20:43.315Z,44.00
2019-05-18T22:23:12.389Z,47.20
2019-05-18T22:25:46.027Z,45.63
2019-05-18T22:28:17.860Z,46.40
2019-05-18T22:30:53.715Z,47.00
2019-05-18T22:33:27.023Z,45.80
2019-05-18T22:35:59.819Z,49.20
2019-05-18T22:38:32.230Z,47.07
2019-05-18T22:41:06.008Z,46.93
2019-05-18T22:43:39.697Z,46.70
2019-05-18T22:46:11.619Z,45.50
2019-05-18T22:48:43.691Z,46.47
2019-05-18T22:51:16.918Z,47.77
2019-05-18T22:53:49.034Z,46.90
2019-05-18T22:56:22.119Z,49.37
2019-05-18T22:58:54.765Z,48.10
2019-05-18T23:01:28.136Z,47.43
2019-05-18T23:04:00.367Z,47.43
2019-05-18T23:06:32.068Z,48.57
2019-05-18T23:09:07.900Z,48.63
2019-05-18T23:11:40.713Z,48.13
2019-05-18T23:14:13.673Z,49.10
2019-05-18T23:16:47.212Z,48.03
2019-05-18T23:19:19.260Z,48.90
2019-05-18T23:21:53.544Z,51.13
2019-05-18T23:24:25.461Z,51.17
2019-05-18T23:26:58.530Z,52.17
2019-05-18T23:29:30.718Z,52.07
2019-05-18T23:32:03.775Z,52.10
2019-05-18T23:34:36.014Z,50.40
2019-05-18T23:37:09.734Z,53.50
2019-05-18T23:39:44.405Z,50.77
2019-05-18T23:42:16.518Z,51.83
2019-05-18T23:44:49.153Z,50.87
2019-05-18T23:47:22.574Z,52.87
2019-05-18T23:49:55.800Z,50.30
2019-05-18T23:52:28.945Z,52.73
2019-05-18T23:55:01.796Z,52.17
2019-05-18T23:57:34.716Z,51.53
